Time;durP1;ratioP1;P1;durP2;ratioP2;P2;SDS_P1;SDS_P2;PMS_P1;PMS_P2;Temp;Humidity;BMP_temperature;BMP_pressure;BME280_temperature;BME280_humidity;BME280_pressure;Samples;Min_cycle;Max_cycle;Signal;HPM_P1;HPM_P2
2022/11/01 00:01:40;;;;;;;16.52;8.30;;;;;;;15.58;100.00;100774.28;5046515;28;20033;-72
2022/11/01 00:04:06;;;;;;;16.77;7.40;;;;;;;15.51;100.00;100763.16;5032826;28;20033;-70
2022/11/01 00:06:31;;;;;;;14.15;6.90;;;;;;;15.60;100.00;100762.66;5049462;28;20120;-71
2022/11/01 00:08:56;;;;;;;12.93;6.40;;;;;;;15.64;100.00;100753.56;5031646;28;20386;-68
2022/11/01 00:11:22;;;;;;;21.70;7.28;;;;;;;15.63;100.00;100751.00;5050080;28;20025;-68
2022/11/01 00:13:48;;;;;;;14.75;7.07;;;;;;;15.60;100.00;100752.03;5050773;28;20032;-73
2022/11/01 00:16:15;;;;;;;16.77;7.55;;;;;;;15.57;100.00;100752.22;5050377;28;20555;-72
2022/11/01 00:18:40;;;;;;;18.02;7.30;;;;;;;15.62;100.00;100747.47;5051069;28;20382;-72
2022/11/01 00:21:06;;;;;;;16.00;7.38;;;;;;;15.71;100.00;100755.88;5050390;28;20025;-74
2022/11/01 00:23:31;;;;;;;18.42;7.78;;;;;;;15.61;100.00;100756.41;5032597;28;20559;-71
2022/11/01 00:26:00;;;;;;;17.67;6.93;;;;;;;15.70;100.00;100756.81;5048099;28;20037;-73
2022/11/01 00:28:26;;;;;;;14.75;7.22;;;;;;;15.69;100.00;100753.31;5032395;28;20032;-70
2022/11/01 00:30:53;;;;;;;15.48;7.00;;;;;;;15.71;100.00;100737.28;5049788;28;20383;-75
2022/11/01 00:33:18;;;;;;;19.02;7.45;;;;;;;15.78;100.00;100730.69;5050053;28;20044;-74
2022/11/01 00:35:45;;;;;;;12.30;6.80;;;;;;;15.80;100.00;100731.41;5050204;28;20487;-69
2022/11/01 00:38:12;;;;;;;20.80;7.10;;;;;;;15.77;100.00;100726.28;5049716;28;20074;-73
2022/11/01 00:40:38;;;;;;;17.73;6.95;;;;;;;15.78;100.00;100722.72;5050282;28;20036;-68
2022/11/01 00:43:03;;;;;;;17.95;7.25;;;;;;;15.73;100.00;100724.75;5050503;28;20378;-63
2022/11/01 00:45:28;;;;;;;18.90;7.25;;;;;;;15.88;100.00;100717.69;5032687;28;20534;-74
2022/11/01 00:47:53;;;;;;;14.00;5.97;;;;;;;15.90;100.00;100721.13;5050468;28;20356;-68
2022/11/01 00:50:19;;;;;;;15.95;6.70;;;;;;;15.87;100.00;100711.53;5049195;28;20832;-72
2022/11/01 00:52:44;;;;;;;16.60;6.63;;;;;;;15.95;100.00;100712.91;5049763;28;20375;-65
2022/11/01 00:55:10;;;;;;;22.30;7.10;;;;;;;15.91;100.00;100721.03;5031286;28;20029;-72
2022/11/01 00:57:35;;;;;;;14.57;6.97;;;;;;;15.80;100.00;100715.47;5050146;28;20111;-68
2022/11/01 01:00:01;;;;;;;9.40;6.22;;;;;;;15.74;100.00;100714.03;5049771;28;20071;-74
2022/11/01 01:02:26;;;;;;;17.05;6.75;;;;;;;15.92;100.00;100713.91;5015057;28;20052;-73
2022/11/01 01:04:52;;;;;;;12.27;6.05;;;;;;;15.96;100.00;100719.91;5049889;28;20061;-63
2022/11/01 01:07:17;;;;;;;14.80;6.47;;;;;;;15.98;100.00;100712.75;5048884;28;20069;-71
2022/11/01 01:09:42;;;;;;;16.55;6.63;;;;;;;16.06;100.00;100710.47;5049587;28;20059;-73
2022/11/01 01:12:08;;;;;;;12.73;6.28;;;;;;;16.12;100.00;100710.13;5047811;28;20537;-74
2022/11/01 01:14:34;;;;;;;13.32;5.85;;;;;;;16.27;100.00;100710.16;5049863;28;20020;-62
2022/11/01 01:16:59;;;;;;;15.60;5.88;;;;;;;16.24;100.00;100708.53;5049259;28;20047;-72
2022/11/01 01:19:25;;;;;;;15.52;5.72;;;;;;;16.21;100.00;100706.06;5049814;28;20567;-72
2022/11/01 01:21:50;;;;;;;13.45;6.32;;;;;;;16.35;100.00;100694.59;5048490;28;20033;-63
2022/11/01 01:24:15;;;;;;;11.95;5.78;;;;;;;16.47;100.00;100698.31;5048763;28;20027;-71
2022/11/01 01:26:41;;;;;;;13.50;6.40;;;;;;;16.53;100.00;100707.72;5031169;28;20104;-73
2022/11/01 01:29:06;;;;;;;18.02;6.60;;;;;;;16.47;100.00;100694.78;5030921;28;20028;-70
2022/11/01 01:31:32;;;;;;;15.68;6.03;;;;;;;16.61;100.00;100691.25;5048570;28;20566;-74
2022/11/01 01:33:57;;;;;;;12.70;5.50;;;;;;;16.61;100.00;100699.25;5049280;28;20033;-71
2022/11/01 01:36:22;;;;;;;13.85;5.63;;;;;;;16.66;100.00;100694.50;5048781;28;20013;-73
2022/11/01 01:38:51;;;;;;;12.88;5.50;;;;;;;16.67;100.00;100699.72;5048943;28;20126;-74
2022/11/01 01:44:00;;;;;;;16.08;5.80;;;;;;;16.75;100.00;100693.94;5049950;28;20044;-67
2022/11/01 01:46:25;;;;;;;18.48;5.20;;;;;;;16.77;100.00;100696.50;5050372;28;20025;-74
2022/11/01 01:48:55;;;;;;;11.68;5.07;;;;;;;16.82;100.00;100691.72;5049765;28;20104;-74
2022/11/01 01:51:22;;;;;;;14.25;5.30;;;;;;;16.85;100.00;100696.00;5049519;28;20020;-65
2022/11/01 01:53:51;;;;;;;12.82;5.75;;;;;;;16.76;100.00;100694.78;5048816;28;20055;-63
2022/11/01 01:56:32;;;;;;;12.57;5.03;;;;;;;16.88;100.00;100691.34;5047958;28;20021;-64
2022/11/01 01:59:08;;;;;;;10.57;5.03;;;;;;;16.93;100.00;100677.75;5031815;28;20037;-72
2022/11/01 02:01:36;;;;;;;11.30;5.45;;;;;;;16.89;100.00;100686.91;5048427;28;20702;-65
2022/11/01 02:04:03;;;;;;;12.30;5.68;;;;;;;16.90;100.00;100684.13;5031410;28;20041;-73
2022/11/01 02:06:31;;;;;;;11.63;5.88;;;;;;;16.89;100.00;100666.44;5030736;28;20075;-70
2022/11/01 02:08:59;;;;;;;20.85;6.10;;;;;;;16.90;100.00;100670.84;5030637;28;20029;-72
2022/11/01 02:11:24;;;;;;;7.85;4.97;;;;;;;16.87;100.00;100668.38;5097392;23;20537;-75
2022/11/01 02:13:50;;;;;;;9.82;4.95;;;;;;;16.86;100.00;100671.13;5028657;28;20045;-73
2022/11/01 02:16:15;;;;;;;16.55;4.93;;;;;;;16.83;100.00;100671.31;5025789;28;20029;-67
2022/11/01 02:18:46;;;;;;;14.43;5.35;;;;;;;16.87;100.00;100671.03;5028603;28;20444;-70
2022/11/01 02:21:49;;;;;;;14.80;5.03;;;;;;;17.00;100.00;100679.06;5027268;28;20033;-72
2022/11/01 02:24:50;;;;;;;12.43;4.70;;;;;;;17.07;100.00;100690.22;5026597;28;20036;-61
2022/11/01 02:27:43;;;;;;;12.30;4.50;;;;;;;17.15;100.00;100701.22;5028430;28;20026;-71
2022/11/01 02:30:11;;;;;;;8.18;4.32;;;;;;;17.35;100.00;100703.56;5028216;28;20531;-72
2022/11/01 02:32:39;;;;;;;10.30;4.75;;;;;;;17.45;100.00;100709.16;5028718;28;20549;-70
2022/11/01 02:35:04;;;;;;;12.35;4.10;;;;;;;17.51;100.00;100711.38;5028230;28;20065;-70
2022/11/01 02:37:52;;;;;;;9.70;3.75;;;;;;;17.43;100.00;100736.72;5028608;28;20055;-74
2022/11/01 02:40:39;;;;;;;6.68;3.20;;;;;;;17.35;100.00;100738.16;5025839;28;20538;-72
2022/11/01 02:43:11;;;;;;;5.93;2.33;;;;;;;17.27;100.00;100728.00;5027243;28;20037;-64
2022/11/01 02:45:40;;;;;;;4.88;2.05;;;;;;;17.40;100.00;100744.06;5025703;28;20025;-72
2022/11/01 02:48:07;;;;;;;4.53;2.15;;;;;;;17.23;100.00;100750.47;5026191;28;20539;-66
2022/11/01 02:50:39;;;;;;;5.75;1.77;;;;;;;17.18;100.00;100777.38;5042936;28;20052;-72
2022/11/01 02:53:05;;;;;;;3.13;1.33;;;;;;;17.09;100.00;100760.19;5025503;28;20525;-71
2022/11/01 02:55:32;;;;;;;4.05;1.65;;;;;;;17.07;100.00;100770.09;5026866;28;20034;-70
2022/11/01 02:58:00;;;;;;;4.32;1.40;;;;;;;16.97;100.00;100760.91;5028102;28;20113;-72
2022/11/01 03:00:34;;;;;;;5.30;1.25;;;;;;;16.85;100.00;100760.72;5027128;28;20045;-73
2022/11/01 03:03:12;;;;;;;5.03;1.30;;;;;;;16.85;100.00;100789.13;5028337;28;20021;-69
2022/11/01 03:05:58;;;;;;;2.22;1.40;;;;;;;16.82;100.00;100773.38;5028072;28;20061;-70
2022/11/01 03:08:45;;;;;;;1.73;1.00;;;;;;;16.53;100.00;100787.50;5027269;28;20032;-72
2022/11/01 03:11:20;;;;;;;9.02;1.75;;;;;;;16.65;100.00;100780.59;5009916;28;20033;-73
2022/11/01 03:14:03;;;;;;;3.05;1.33;;;;;;;16.68;100.00;100794.53;5025832;28;20102;-66
2022/11/01 03:16:31;;;;;;;7.20;1.50;;;;;;;16.54;100.00;100778.56;5027878;28;20057;-70
2022/11/01 03:19:29;;;;;;;3.38;1.35;;;;;;;16.58;100.00;100789.88;5025982;28;20028;-71
2022/11/01 03:22:02;;;;;;;3.40;1.23;;;;;;;16.34;100.00;100793.91;5025337;28;20030;-75
2022/11/01 03:24:32;;;;;;;6.15;1.30;;;;;;;16.34;100.00;100795.72;5026235;28;20021;-71
2022/11/01 03:27:31;;;;;;;7.18;1.80;;;;;;;16.40;100.00;100811.28;5026140;28;20108;-66
2022/11/01 03:30:06;;;;;;;3.08;1.30;;;;;;;16.31;100.00;100798.56;5021044;28;20034;-70
2022/11/01 03:32:39;;;;;;;5.00;1.20;;;;;;;16.25;100.00;100810.38;5027947;28;20038;-73
2022/11/01 03:35:06;;;;;;;4.93;1.73;;;;;;;16.24;100.00;100824.63;5009911;28;20064;-74
2022/11/01 03:37:32;;;;;;;4.95;1.38;;;;;;;16.21;100.00;100819.50;5026378;28;20751;-71
2022/11/01 03:40:02;;;;;;;2.72;0.98;;;;;;;16.11;100.00;100820.06;5025910;28;20025;-62
2022/11/01 03:42:28;;;;;;;4.50;1.08;;;;;;;16.08;98.78;100814.03;5025333;28;20045;-67
2022/11/01 03:44:57;;;;;;;5.47;1.38;;;;;;;16.05;98.78;100831.03;5025585;28;20235;-68
2022/11/01 03:47:23;;;;;;;5.40;1.42;;;;;;;15.89;97.75;100826.53;5026618;28;20778;-71
2022/11/01 03:50:15;;;;;;;8.43;1.42;;;;;;;15.82;97.38;100849.09;5027203;28;20016;-72
2022/11/01 03:52:41;;;;;;;2.95;1.10;;;;;;;15.94;96.50;100844.03;5025353;28;20049;-69
2022/11/01 03:55:19;;;;;;;8.35;1.42;;;;;;;15.80;96.34;100866.91;5025873;28;20125;-72
2022/11/01 03:57:48;;;;;;;6.37;1.30;;;;;;;15.72;96.13;100866.50;5026921;28;20105;-67
2022/11/01 04:00:22;;;;;;;9.43;1.50;;;;;;;15.71;96.63;100862.13;5026948;28;20029;-70
2022/11/01 04:02:48;;;;;;;4.30;1.23;;;;;;;15.60;96.06;100852.97;5027243;28;20352;-75
2022/11/01 04:05:14;;;;;;;7.10;1.83;;;;;;;15.57;95.66;100874.38;5025772;28;20471;-65
2022/11/01 04:07:39;;;;;;;10.07;1.48;;;;;;;15.73;95.80;100869.06;5024912;28;20022;-70
2022/11/01 04:10:06;;;;;;;7.82;2.30;;;;;;;15.66;95.78;100879.16;5025923;28;20041;-69
2022/11/01 04:12:31;;;;;;;7.97;1.85;;;;;;;15.72;96.28;100888.59;5026910;28;20050;-73
2022/11/01 04:20:34;;;;;;;8.25;1.58;;;;;;;15.56;98.92;100899.19;5026892;28;20028;-71
2022/11/01 04:22:59;;;;;;;5.50;1.30;;;;;;;15.61;98.73;100901.59;5026510;28;20026;-64
2022/11/01 04:25:25;;;;;;;10.52;1.45;;;;;;;15.42;99.30;100913.22;5027100;28;20137;-72
2022/11/01 04:27:50;;;;;;;7.35;1.13;;;;;;;15.35;97.72;100927.78;5025799;28;20037;-72
2022/11/01 04:30:15;;;;;;;13.38;1.63;;;;;;;15.27;97.33;100905.13;5024765;28;20025;-69
2022/11/01 04:32:44;;;;;;;12.15;2.00;;;;;;;15.24;96.43;100923.00;5026304;28;20083;-70
2022/11/01 04:35:11;;;;;;;8.88;1.50;;;;;;;15.24;95.73;100930.97;5027051;28;20079;-69
2022/11/01 04:37:37;;;;;;;9.65;1.95;;;;;;;15.22;94.56;100922.22;5026501;28;20498;-66
2022/11/01 04:40:03;;;;;;;8.35;1.83;;;;;;;14.97;92.75;100928.81;5026634;28;20017;-64
2022/11/01 04:42:28;;;;;;;11.68;2.10;;;;;;;15.08;92.02;100934.41;5026835;28;20030;-69
2022/11/01 04:44:54;;;;;;;7.13;1.48;;;;;;;14.98;92.97;100917.25;5026682;28;20384;-70
2022/11/01 04:47:19;;;;;;;12.38;1.83;;;;;;;15.00;93.74;100920.69;5026693;28;20017;-70
2022/11/01 04:49:44;;;;;;;9.32;1.50;;;;;;;14.95;94.39;100920.06;5028885;28;20116;-64
2022/11/01 04:52:09;;;;;;;10.60;1.80;;;;;;;14.86;93.52;100927.56;5027780;28;20065;-75
2022/11/01 04:54:35;;;;;;;12.55;2.20;;;;;;;14.84;93.78;100925.94;5012461;28;20062;-69
2022/11/01 04:57:00;;;;;;;8.70;1.55;;;;;;;14.83;93.83;100930.38;5011053;28;20037;-70
2022/11/01 04:59:26;;;;;;;11.88;1.98;;;;;;;14.63;94.23;100921.59;5011008;28;20246;-71
2022/11/01 05:01:51;;;;;;;20.35;1.90;;;;;;;14.49;94.32;100940.84;5010781;28;20038;-74
2022/11/01 05:04:16;;;;;;;11.07;1.70;;;;;;;14.53;94.68;100941.53;5010856;28;20034;-66
2022/11/01 05:06:42;;;;;;;8.68;1.63;;;;;;;14.46;94.62;100927.75;5023885;28;20056;-71
2022/11/01 05:09:07;;;;;;;15.57;1.60;;;;;;;14.46;94.66;100941.00;5028005;28;20027;-68
2022/11/01 05:11:32;;;;;;;9.45;1.70;;;;;;;14.49;94.47;100935.53;5026871;28;20133;-71
2022/11/01 05:13:57;;;;;;;12.45;1.45;;;;;;;14.33;94.41;100930.09;5029488;28;20102;-73
2022/11/01 05:16:23;;;;;;;7.93;1.52;;;;;;;14.38;94.09;100920.16;5030137;28;20076;-64
2022/11/01 05:18:48;;;;;;;8.93;1.92;;;;;;;14.33;94.51;100937.22;5029904;28;20083;-70
2022/11/01 05:21:14;;;;;;;8.13;1.70;;;;;;;14.19;93.88;100936.09;5028598;28;20048;-76
2022/11/01 05:23:39;;;;;;;13.35;2.17;;;;;;;14.30;93.84;100946.16;5029511;28;20027;-71
2022/11/01 05:26:04;;;;;;;13.30;1.70;;;;;;;14.35;93.13;100932.69;5028886;28;20029;-69
2022/11/01 05:28:30;;;;;;;13.77;2.33;;;;;;;14.48;92.80;100948.88;5029358;28;20040;-71
2022/11/01 05:30:57;;;;;;;12.32;1.80;;;;;;;14.32;92.70;100927.53;5028551;28;20025;-66
2022/11/01 05:33:22;;;;;;;13.57;1.83;;;;;;;14.25;92.52;100935.81;5027316;28;20025;-73
2022/11/01 05:35:47;;;;;;;8.63;1.58;;;;;;;14.39;91.47;100918.38;5028438;28;20445;-65
2022/11/01 05:38:13;;;;;;;16.98;2.50;;;;;;;14.23;91.07;100947.38;5028418;28;20048;-68
2022/11/01 05:40:38;;;;;;;15.10;2.35;;;;;;;14.25;91.05;100957.00;5028592;28;20025;-73
2022/11/01 05:43:03;;;;;;;12.43;2.38;;;;;;;14.29;90.16;100931.19;5028313;28;20044;-65
2022/11/01 05:45:29;;;;;;;9.63;2.30;;;;;;;14.30;90.32;100945.31;5029311;28;20044;-72
2022/11/01 05:47:55;;;;;;;15.48;2.25;;;;;;;14.23;90.04;100958.84;5026230;28;20101;-72
2022/11/01 05:50:21;;;;;;;9.50;2.20;;;;;;;14.25;89.55;100954.34;5028515;28;20128;-67
2022/11/01 05:52:47;;;;;;;23.45;2.97;;;;;;;14.25;89.21;100954.34;5026422;28;20169;-66
2022/11/01 05:55:12;;;;;;;21.20;3.47;;;;;;;14.37;89.28;100968.81;5028408;28;20026;-70
2022/11/01 05:57:38;;;;;;;13.57;3.13;;;;;;;14.24;89.43;100951.78;5027241;28;20037;-69
2022/11/01 06:00:04;;;;;;;12.80;2.33;;;;;;;14.31;89.49;100974.41;5027823;28;20070;-61
2022/11/01 06:02:32;;;;;;;10.85;2.17;;;;;;;14.38;89.17;100980.25;5028772;28;20451;-68
2022/11/01 06:04:58;;;;;;;14.70;2.88;;;;;;;14.31;89.73;100968.22;5028171;28;20530;-67
2022/11/01 06:07:25;;;;;;;14.82;2.53;;;;;;;14.51;88.67;100961.97;5027724;28;20030;-68
2022/11/01 06:09:50;;;;;;;13.85;2.33;;;;;;;14.61;88.32;100965.91;5028606;28;20440;-68
2022/11/01 06:12:16;;;;;;;18.73;2.40;;;;;;;14.51;88.18;100977.88;5024570;28;20080;-69
2022/11/01 06:14:41;;;;;;;16.60;3.00;;;;;;;14.35;88.87;100965.34;5027640;28;20045;-68
2022/11/01 06:17:07;;;;;;;16.40;2.65;;;;;;;14.55;88.27;100981.22;5027030;28;20025;-69
2022/11/01 06:19:32;;;;;;;20.25;2.88;;;;;;;14.36;88.66;100987.44;5027810;28;20072;-74
2022/11/01 06:21:58;;;;;;;15.15;2.70;;;;;;;14.46;87.85;100977.25;5026136;28;20029;-71
2022/11/01 06:24:23;;;;;;;14.00;2.85;;;;;;;14.48;87.89;100986.81;5026593;28;20075;-62
2022/11/01 06:26:48;;;;;;;18.25;2.50;;;;;;;14.59;86.89;100977.50;5028009;28;20072;-68
2022/11/01 06:29:14;;;;;;;15.55;3.10;;;;;;;14.43;87.30;100983.56;5027725;28;20076;-73
2022/11/01 06:31:39;;;;;;;16.08;3.42;;;;;;;14.45;87.47;100981.66;5020592;28;20045;-73
2022/11/01 06:34:04;;;;;;;20.23;2.70;;;;;;;14.53;87.27;101000.72;5022717;28;20021;-66
2022/11/01 06:36:30;;;;;;;15.23;2.67;;;;;;;14.47;87.30;100994.84;5027644;28;20025;-72
2022/11/01 06:38:55;;;;;;;16.98;3.00;;;;;;;14.48;87.56;100999.25;5028313;28;20030;-72
2022/11/01 06:41:20;;;;;;;12.02;2.95;;;;;;;14.28;88.01;100993.09;5022402;28;20029;-66
2022/11/01 06:43:49;;;;;;;16.75;2.70;;;;;;;14.37;87.92;101021.81;5017847;28;20025;-73
2022/11/01 06:46:14;;;;;;;20.65;2.75;;;;;;;14.33;88.57;101020.22;5018806;28;20020;-72
2022/11/01 06:48:39;;;;;;;13.57;2.88;;;;;;;14.17;89.02;101017.44;5018784;28;20340;-73
2022/11/01 06:51:05;;;;;;;10.18;2.25;;;;;;;14.23;88.95;101030.41;5017405;28;20543;-70
2022/11/01 06:53:30;;;;;;;13.68;2.80;;;;;;;14.10;89.58;101032.78;5016968;28;20554;-64
2022/11/01 06:55:59;;;;;;;19.75;2.88;;;;;;;14.26;89.21;101032.03;5018409;28;20167;-72
2022/11/01 06:58:25;;;;;;;16.67;2.85;;;;;;;14.21;89.27;101036.72;5019182;28;20026;-70
2022/11/01 07:00:51;;;;;;;15.90;3.33;;;;;;;14.24;89.28;101037.41;5016333;28;20033;-72
2022/11/01 07:03:16;;;;;;;22.02;2.92;;;;;;;14.28;89.69;101040.81;5017007;28;20038;-69
2022/11/01 07:05:41;;;;;;;13.48;2.65;;;;;;;14.31;89.86;101032.72;5016911;28;20029;-66
2022/11/01 07:08:09;;;;;;;19.33;2.97;;;;;;;14.19;90.18;101086.28;5017572;28;20357;-67
2022/11/01 07:10:36;;;;;;;11.23;2.45;;;;;;;14.24;90.32;101061.28;5017403;28;20484;-62
2022/11/01 07:13:03;;;;;;;18.15;2.97;;;;;;;14.37;89.93;101081.91;5014928;28;20025;-73
2022/11/01 07:15:29;;;;;;;20.60;4.13;;;;;;;14.29;90.38;101092.88;5022714;28;20032;-71
2022/11/01 07:18:02;;;;;;;19.42;3.22;;;;;;;14.35;90.18;101083.78;5028081;28;20026;-71
2022/11/01 07:20:29;;;;;;;11.77;2.45;;;;;;;14.27;90.03;101092.09;5027356;28;20060;-67
2022/11/01 07:23:04;;;;;;;20.45;2.95;;;;;;;14.36;90.13;101101.41;5026240;28;20026;-68
2022/11/01 07:25:31;;;;;;;17.55;2.72;;;;;;;14.30;90.41;101133.50;5025761;28;20022;-70
2022/11/01 07:27:56;;;;;;;22.85;2.88;;;;;;;14.31;90.68;101120.19;5026375;28;20626;-70
2022/11/01 07:30:22;;;;;;;18.40;2.92;;;;;;;14.21;90.97;101138.25;5026516;28;20025;-73
2022/11/01 07:32:47;;;;;;;20.05;2.75;;;;;;;14.20;91.26;101122.44;5020064;28;20140;-70
2022/11/01 07:35:13;;;;;;;21.50;3.25;;;;;;;14.26;91.39;101130.97;5015515;28;20017;-71
2022/11/01 07:37:38;;;;;;;16.05;3.08;;;;;;;14.19;92.25;101139.28;5009443;28;20017;-68
2022/11/01 07:40:04;;;;;;;15.10;2.47;;;;;;;14.18;92.19;101132.25;5021225;28;20033;-70
2022/11/01 07:42:29;;;;;;;24.38;3.30;;;;;;;14.18;92.29;101145.50;5013651;28;20424;-69
2022/11/01 07:44:55;;;;;;;19.90;3.08;;;;;;;14.14;92.57;101158.88;5005797;28;20451;-66
2022/11/01 07:47:20;;;;;;;21.67;2.97;;;;;;;14.12;92.86;101158.09;5006591;28;20486;-69
2022/11/01 07:49:46;;;;;;;17.60;2.85;;;;;;;14.13;93.06;101158.97;5006805;28;20437;-73
2022/11/01 07:52:12;;;;;;;18.95;2.90;;;;;;;14.22;92.46;101149.75;5012937;28;20029;-69
2022/11/01 07:54:37;;;;;;;19.80;3.10;;;;;;;14.22;92.75;101170.94;5016000;28;20075;-69
2022/11/01 07:57:02;;;;;;;16.73;3.00;;;;;;;14.30;92.80;101189.16;5015284;28;20499;-70
2022/11/01 07:59:28;;;;;;;14.98;3.78;;;;;;;14.12;93.03;101175.78;5016729;28;20383;-70
2022/11/01 08:01:53;;;;;;;14.52;3.08;;;;;;;14.06;93.86;101176.91;5014162;28;20037;-74
2022/11/01 08:04:18;;;;;;;18.40;2.67;;;;;;;14.12;93.42;101208.44;5015089;28;20029;-61
2022/11/01 08:06:44;;;;;;;10.98;2.85;;;;;;;14.03;93.27;101185.84;5014164;28;20104;-71
2022/11/01 08:09:09;;;;;;;20.73;2.97;;;;;;;14.12;94.00;101197.84;5017184;28;20025;-73
2022/11/01 08:11:34;;;;;;;18.08;3.08;;;;;;;14.20;93.01;101192.19;5014068;28;20034;-67
2022/11/01 08:14:00;;;;;;;20.15;2.92;;;;;;;14.30;93.18;101197.94;5016627;28;20028;-63
2022/11/01 08:16:25;;;;;;;16.02;2.83;;;;;;;14.27;93.63;101198.97;5015019;28;20014;-70
2022/11/01 08:18:50;;;;;;;22.35;4.20;;;;;;;14.16;93.73;101209.16;5014716;28;20029;-68
2022/11/01 08:21:18;;;;;;;24.35;2.75;;;;;;;14.31;93.26;101222.69;5021595;28;20399;-73
2022/11/01 08:23:44;;;;;;;21.60;3.17;;;;;;;14.31;93.57;101225.31;5030409;28;20053;-70
2022/11/01 08:26:10;;;;;;;11.90;2.20;;;;;;;14.08;93.21;101225.41;5029302;28;20472;-76
2022/11/01 08:28:36;;;;;;;14.80;2.85;;;;;;;14.18;93.34;101233.81;5030801;28;20065;-73
2022/11/01 08:31:05;;;;;;;16.20;2.78;;;;;;;14.23;93.70;101239.78;5031079;28;20112;-71
2022/11/01 08:33:31;;;;;;;11.52;3.20;;;;;;;14.11;93.52;101238.50;5025671;28;20056;-69
2022/11/01 08:35:56;;;;;;;24.73;2.78;;;;;;;14.20;93.91;101262.88;5020406;28;20057;-73
2022/11/01 08:38:22;;;;;;;15.70;2.50;;;;;;;14.22;94.00;101242.50;5029876;28;20052;-69
2022/11/01 08:40:47;;;;;;;21.02;2.80;;;;;;;14.18;93.51;101254.16;5026862;28;20033;-69
2022/11/01 08:43:12;;;;;;;10.68;2.08;;;;;;;14.33;93.61;101257.94;5029582;28;20038;-72
2022/11/01 08:45:38;;;;;;;18.20;2.30;;;;;;;14.54;92.73;101264.06;5028925;28;20028;-62
2022/11/01 08:48:04;;;;;;;18.75;3.03;;;;;;;14.61;92.06;101243.47;5029076;28;20465;-65
2022/11/01 08:50:30;;;;;;;20.48;3.13;;;;;;;14.63;92.30;101261.03;5029793;28;20108;-76
2022/11/01 08:52:55;;;;;;;16.08;3.45;;;;;;;14.73;92.37;101265.94;5028645;28;20554;-70
2022/11/01 08:55:21;;;;;;;19.27;3.05;;;;;;;14.49;93.16;101260.78;5029418;28;20104;-72
2022/11/01 08:57:47;;;;;;;13.52;2.55;;;;;;;14.42;93.54;101275.25;5030402;28;20019;-74
2022/11/01 09:00:15;;;;;;;21.02;2.60;;;;;;;14.46;93.76;101275.03;5029985;28;20033;-69
2022/11/01 09:02:40;;;;;;;16.63;2.78;;;;;;;14.53;93.35;101270.31;5009730;28;20038;-72
2022/11/01 09:05:06;;;;;;;16.55;3.25;;;;;;;14.77;92.42;101275.47;5009128;28;20029;-68
2022/11/01 09:07:35;;;;;;;14.85;2.17;;;;;;;14.65;92.67;101284.81;5009857;28;20053;-75
2022/11/01 09:10:00;;;;;;;;;;;;;;;14.91;92.08;101296.97;5010162;28;20109;-64
2022/11/01 09:12:26;;;;;;;20.38;3.33;;;;;;;14.91;91.98;101307.56;5009692;28;20008;-70
2022/11/01 09:14:51;;;;;;;15.55;2.80;;;;;;;14.91;92.39;101302.25;5009446;28;20040;-75
2022/11/01 09:17:17;;;;;;;22.13;2.85;;;;;;;14.98;92.06;101302.00;5035841;28;20116;-68
2022/11/01 09:19:42;;;;;;;20.65;3.10;;;;;;;14.88;92.36;101307.72;5026928;28;20032;-76
2022/11/01 09:22:08;;;;;;;21.65;3.03;;;;;;;14.95;92.69;101310.97;5027173;28;20034;-62
2022/11/01 09:24:34;;;;;;;19.58;2.50;;;;;;;14.98;92.12;101317.91;5029243;28;20460;-67
2022/11/01 09:26:59;;;;;;;25.20;2.88;;;;;;;15.03;92.10;101321.25;5028428;28;20029;-75
2022/11/01 09:29:25;;;;;;;21.42;3.15;;;;;;;15.13;91.69;101325.19;5028004;28;20104;-67
2022/11/01 09:31:52;;;;;;;12.70;2.75;;;;;;;15.17;91.80;101368.38;5029003;28;20026;-73
2022/11/01 09:34:18;;;;;;;18.23;2.80;;;;;;;15.27;90.96;101337.81;5028386;28;20243;-65
2022/11/01 09:36:43;;;;;;;14.73;3.28;;;;;;;15.22;91.06;101345.16;5026800;28;20029;-70
2022/11/01 09:39:09;;;;;;;16.77;2.97;;;;;;;15.10;91.50;101338.59;5028031;28;20053;-73
2022/11/01 09:41:46;;;;;;;14.82;3.00;;;;;;;15.08;92.07;101340.44;5028627;28;20028;-71
2022/11/01 09:44:16;;;;;;;19.92;2.95;;;;;;;15.26;91.48;101345.88;5025505;28;20508;-73
2022/11/01 09:46:45;;;;;;;17.50;2.70;;;;;;;15.29;91.38;101335.09;5027109;28;20102;-63
2022/11/01 09:49:13;;;;;;;12.57;2.80;;;;;;;15.40;91.45;101347.88;5027749;28;20060;-72
2022/11/01 09:51:39;;;;;;;16.95;3.33;;;;;;;15.39;91.34;101346.16;5026533;28;20357;-76
2022/11/01 09:54:07;;;;;;;14.80;2.60;;;;;;;15.34;91.57;101351.69;5027848;28;20090;-63
2022/11/01 09:57:09;;;;;;;15.15;2.75;;;;;;;15.08;93.06;101352.88;5028047;28;20022;-74
2022/11/01 09:59:59;;;;;;;16.75;3.00;;;;;;;15.48;92.19;101334.25;5028808;28;20033;-71
2022/11/01 10:02:45;;;;;;;15.35;2.80;;;;;;;15.36;91.98;101352.50;5027293;28;20071;-67
2022/11/01 10:05:41;;;;;;;18.77;2.83;;;;;;;15.54;91.41;101339.28;5026590;28;20466;-63
2022/11/01 10:08:10;;;;;;;14.48;3.17;;;;;;;15.70;90.92;101342.06;5027320;28;20131;-72
2022/11/01 10:11:04;;;;;;;15.32;2.72;;;;;;;15.68;91.07;101359.03;5027826;28;20068;-72
2022/11/01 10:14:05;;;;;;;20.77;2.88;;;;;;;15.72;91.76;101344.66;5027748;28;20041;-73
2022/11/01 10:16:40;;;;;;;16.23;3.13;;;;;;;15.81;90.71;101373.44;4967571;28;20178;-70
2022/11/01 10:19:22;;;;;;;18.38;3.08;;;;;;;15.76;90.96;101372.78;5018247;28;20060;-68
2022/11/01 10:21:53;;;;;;;16.00;2.80;;;;;;;15.82;90.35;101382.25;5026735;28;20029;-68
2022/11/01 10:24:40;;;;;;;13.90;2.95;;;;;;;15.89;90.24;101375.72;5026825;28;20045;-74
2022/11/01 10:27:14;;;;;;;13.05;2.92;;;;;;;16.18;89.44;101397.41;5023758;28;20032;-69
2022/11/01 10:30:02;;;;;;;18.80;2.97;;;;;;;16.17;89.30;101388.56;5022420;28;20468;-65
2022/11/01 10:32:49;;;;;;;19.52;3.03;;;;;;;16.06;89.79;101396.22;5026512;28;20480;-71
2022/11/01 10:35:20;;;;;;;17.92;2.88;;;;;;;16.33;88.14;101398.47;5026584;28;20057;-67
2022/11/01 10:37:50;;;;;;;17.83;2.95;;;;;;;16.28;88.41;101396.03;5027404;28;20025;-68
2022/11/01 10:40:22;;;;;;;16.88;2.70;;;;;;;16.41;87.88;101385.63;5026600;28;20400;-66
2022/11/01 10:42:47;;;;;;;13.27;2.95;;;;;;;16.52;87.44;101400.19;5027938;28;20038;-71
2022/11/01 10:45:17;;;;;;;21.27;2.88;;;;;;;16.79;86.93;101407.69;5026634;28;20018;-73
2022/11/01 10:47:45;;;;;;;14.48;2.83;;;;;;;16.65;87.08;101408.44;5024520;28;20528;-68
2022/11/01 10:50:10;;;;;;;13.40;2.83;;;;;;;16.93;85.36;101391.03;5025362;28;20028;-70
2022/11/01 10:53:14;;;;;;;12.45;2.63;;;;;;;17.23;84.10;101402.84;5026774;28;20476;-67
2022/11/01 10:55:46;;;;;;;16.55;2.85;;;;;;;16.95;85.05;101404.25;4949504;28;20058;-68
2022/11/01 10:58:18;;;;;;;11.65;2.60;;;;;;;16.86;85.09;101398.47;4955353;28;20379;-66
2022/11/01 11:00:43;;;;;;;15.10;2.25;;;;;;;16.85;85.54;101394.09;4989473;28;20033;-71
2022/11/01 11:03:17;;;;;;;18.35;2.75;;;;;;;16.81;85.97;101403.19;5014747;28;20021;-73
2022/11/01 11:05:42;;;;;;;10.95;2.35;;;;;;;16.73;85.26;101394.72;5013415;28;20061;-72
2022/11/01 11:08:14;;;;;;;13.90;2.70;;;;;;;16.86;85.36;101400.28;5015628;28;20424;-68
2022/11/01 11:10:41;;;;;;;18.77;2.65;;;;;;;16.86;85.16;101392.28;5018834;28;20017;-67
2022/11/01 11:13:07;;;;;;;12.38;2.35;;;;;;;16.70;86.68;101389.56;5021512;28;20022;-70
2022/11/01 11:15:44;;;;;;;17.88;2.75;;;;;;;16.96;85.31;101395.31;5025251;28;20061;-71
2022/11/01 11:18:31;;;;;;;17.17;2.67;;;;;;;16.86;85.14;101401.13;5025762;28;20388;-70
2022/11/01 11:21:22;;;;;;;12.43;2.10;;;;;;;17.01;84.41;101404.78;5025174;28;20108;-68
2022/11/01 11:23:48;;;;;;;12.65;2.35;;;;;;;16.87;85.36;101400.19;5022772;28;20037;-69
2022/11/01 11:26:17;;;;;;;15.00;2.08;;;;;;;16.95;85.61;101391.81;5027839;28;20083;-73
2022/11/01 11:28:46;;;;;;;13.60;1.75;;;;;;;16.99;83.75;101390.72;5027373;28;20100;-68
2022/11/01 11:31:32;;;;;;;11.77;2.47;;;;;;;17.14;84.28;101386.41;5027342;28;20033;-73
2022/11/01 11:34:02;;;;;;;10.70;2.10;;;;;;;17.26;83.35;101389.34;5024134;28;20057;-68